createdAt,value
2023-02-25T00:00:37.961Z,3.04
2023-02-25T00:03:05.604Z,3.06
2023-02-25T00:05:33.572Z,3.07
2023-02-25T00:08:02.436Z,3.03
2023-02-25T00:10:29.958Z,3.06
2023-02-25T00:13:05.915Z,3.14
2023-02-25T00:15:43.565Z,3.23
2023-02-25T00:18:11.078Z,3.19
2023-02-25T00:20:40.512Z,3.18
2023-02-25T00:23:09.379Z,3.17
2023-02-25T00:25:36.915Z,3.24
2023-02-25T00:28:06.268Z,3.18
2023-02-25T00:30:33.900Z,3.21
2023-02-25T00:33:01.548Z,3.17
2023-02-25T00:35:29.112Z,3.20
2023-02-25T00:38:04.026Z,3.19
2023-02-25T00:40:40.889Z,3.24
2023-02-25T00:43:08.604Z,3.34
2023-02-25T00:45:36.187Z,3.39
2023-02-25T00:48:03.693Z,3.26
2023-02-25T00:50:31.194Z,3.20
2023-02-25T00:52:58.693Z,3.31
2023-02-25T00:55:33.195Z,3.25
2023-02-25T00:58:03.028Z,3.18
2023-02-25T01:00:35.895Z,3.19
2023-02-25T01:03:08.199Z,3.22
2023-02-25T01:05:35.709Z,3.42
2023-02-25T01:08:03.405Z,3.56
2023-02-25T01:10:30.891Z,3.37
2023-02-25T01:12:58.341Z,3.35
2023-02-25T01:15:27.157Z,3.34
2023-02-25T01:17:54.606Z,3.32
2023-02-25T01:20:24.079Z,3.41
2023-02-25T01:22:51.588Z,3.50
2023-02-25T01:25:19.165Z,3.22
2023-02-25T01:27:46.633Z,3.17
2023-02-25T01:30:14.305Z,3.14
2023-02-25T01:32:43.278Z,3.34
2023-02-25T01:35:10.790Z,3.27
2023-02-25T01:37:38.266Z,3.23
2023-02-25T01:40:06.994Z,3.21
2023-02-25T01:42:34.531Z,3.36
2023-02-25T01:45:33.671Z,3.27
2023-02-25T01:48:08.132Z,3.25
2023-02-25T01:50:42.338Z,3.24
2023-02-25T01:53:10.209Z,3.10
2023-02-25T01:55:41.181Z,3.00
2023-02-25T01:58:09.668Z,3.14
2023-02-25T02:00:38.414Z,3.04
2023-02-25T02:03:16.021Z,2.95
2023-02-25T02:05:54.441Z,2.95
2023-02-25T02:08:23.100Z,2.82
2023-02-25T02:10:50.994Z,2.77
2023-02-25T02:13:19.146Z,2.84
2023-02-25T02:15:59.630Z,2.83
2023-02-25T02:18:34.743Z,2.80
2023-02-25T02:21:21.051Z,2.82
2023-02-25T02:24:14.025Z,2.74
2023-02-25T02:26:51.891Z,2.77
2023-02-25T02:29:39.613Z,2.76
2023-02-25T02:32:17.443Z,2.72
2023-02-25T02:34:57.442Z,2.56
2023-02-25T02:37:34.929Z,2.63
2023-02-25T02:40:15.390Z,2.71
2023-02-25T02:42:53.290Z,2.57
2023-02-25T02:45:24.766Z,2.57
2023-02-25T02:47:59.848Z,2.50
2023-02-25T02:50:34.373Z,2.50
2023-02-25T02:53:07.807Z,2.50
2023-02-25T02:55:38.005Z,2.42
2023-02-25T02:58:11.703Z,2.41
2023-02-25T03:00:44.043Z,2.37
2023-02-25T03:03:16.235Z,2.46
2023-02-25T03:05:48.678Z,2.54
2023-02-25T03:08:19.962Z,2.67
2023-02-25T03:10:47.446Z,2.77
2023-02-25T03:13:15.976Z,2.70
2023-02-25T03:15:45.287Z,2.73
2023-02-25T03:18:22.985Z,2.94
2023-02-25T03:20:54.464Z,2.78
2023-02-25T03:23:25.165Z,2.85
2023-02-25T03:25:57.638Z,2.76
2023-02-25T03:28:29.827Z,2.73
2023-02-25T03:31:06.307Z,2.70
2023-02-25T03:33:40.924Z,2.65
2023-02-25T03:36:13.561Z,2.64
2023-02-25T03:38:47.692Z,2.68
2023-02-25T03:41:16.981Z,2.62
2023-02-25T03:43:49.918Z,2.48
2023-02-25T03:46:19.602Z,2.36
2023-02-25T03:48:50.062Z,2.47
2023-02-25T03:51:22.733Z,2.47
2023-02-25T03:53:51.112Z,2.50
2023-02-25T03:56:18.638Z,2.49
2023-02-25T03:58:46.269Z,2.54
2023-02-25T04:01:17.564Z,2.63
2023-02-25T04:03:45.220Z,2.65
2023-02-25T04:06:14.423Z,2.80
2023-02-25T04:08:42.405Z,2.74
2023-02-25T04:11:09.937Z,2.58
2023-02-25T04:13:37.435Z,2.64
2023-02-25T04:16:05.453Z,2.78
2023-02-25T04:18:32.977Z,2.74
2023-02-25T04:21:00.516Z,2.59
2023-02-25T04:23:29.483Z,2.84
2023-02-25T04:25:56.989Z,2.99
2023-02-25T04:28:24.474Z,2.70
2023-02-25T04:30:52.076Z,2.70
2023-02-25T04:33:19.600Z,2.51
2023-02-25T04:35:47.087Z,2.52
2023-02-25T04:38:14.558Z,2.71
2023-02-25T04:40:43.490Z,2.68
2023-02-25T04:43:10.936Z,2.52
2023-02-25T04:45:38.401Z,2.63
2023-02-25T04:48:06.637Z,2.71
2023-02-25T04:50:34.200Z,2.56
2023-02-25T04:53:02.759Z,2.86
2023-02-25T04:55:31.012Z,2.56
2023-02-25T04:57:59.808Z,2.57
2023-02-25T05:00:27.909Z,2.54
2023-02-25T05:02:55.457Z,2.53
2023-02-25T05:05:22.962Z,2.48
2023-02-25T05:07:50.459Z,2.46
2023-02-25T05:10:18.008Z,2.65
2023-02-25T05:12:45.464Z,2.62
2023-02-25T05:15:14.815Z,2.52
2023-02-25T05:17:42.324Z,2.45
2023-02-25T05:20:13.106Z,2.45
2023-02-25T05:22:41.025Z,2.56
2023-02-25T05:25:10.354Z,2.55
2023-02-25T05:27:38.337Z,2.44
2023-02-25T05:30:06.886Z,2.47
2023-02-25T05:32:35.858Z,2.45
2023-02-25T05:35:03.407Z,2.45
2023-02-25T05:37:32.563Z,2.45
2023-02-25T05:39:59.998Z,2.40
2023-02-25T05:42:27.496Z,2.53
2023-02-25T05:44:54.985Z,2.49
2023-02-25T05:47:22.481Z,2.60
2023-02-25T05:49:51.273Z,2.61
2023-02-25T05:52:18.753Z,2.75
2023-02-25T05:54:46.209Z,2.54
2023-02-25T05:57:13.657Z,2.48
2023-02-25T05:59:41.116Z,2.50
2023-02-25T06:02:08.618Z,2.45
2023-02-25T06:04:36.118Z,2.45
2023-02-25T06:07:04.917Z,2.31
2023-02-25T06:09:34.541Z,2.45
2023-02-25T06:12:01.991Z,2.69
2023-02-25T06:14:29.488Z,2.35
2023-02-25T06:16:57.343Z,2.33
2023-02-25T06:19:26.285Z,2.34
2023-02-25T06:21:54.727Z,2.37
2023-02-25T06:24:24.572Z,2.37
2023-02-25T06:26:52.381Z,2.48
2023-02-25T06:29:20.096Z,2.37
2023-02-25T06:31:47.755Z,2.36
2023-02-25T06:34:15.276Z,2.39
2023-02-25T06:36:42.739Z,2.50
2023-02-25T06:39:11.521Z,2.60
2023-02-25T06:41:40.598Z,2.51
2023-02-25T06:44:08.057Z,2.49
2023-02-25T06:46:35.501Z,2.54
2023-02-25T06:49:02.983Z,2.71
2023-02-25T06:51:30.449Z,2.46
2023-02-25T06:53:57.968Z,2.37
2023-02-25T06:56:26.867Z,2.69
2023-02-25T06:58:56.675Z,2.49
2023-02-25T07:01:24.190Z,2.41
2023-02-25T07:03:51.748Z,2.45
2023-02-25T07:06:19.745Z,2.50
2023-02-25T07:08:47.291Z,2.48
2023-02-25T07:11:29.044Z,2.57
2023-02-25T07:13:58.330Z,2.52
2023-02-25T07:16:26.542Z,2.62
2023-02-25T07:18:54.277Z,2.62
2023-02-25T07:21:22.870Z,2.76
2023-02-25T07:23:50.903Z,2.74
2023-02-25T07:26:18.378Z,2.80
2023-02-25T07:28:45.821Z,2.84
2023-02-25T07:31:17.125Z,3.05
2023-02-25T07:33:45.486Z,2.93
2023-02-25T07:36:13.297Z,2.71
2023-02-25T07:38:41.334Z,2.75
2023-02-25T07:41:09.990Z,2.84
2023-02-25T07:43:37.691Z,2.75
2023-02-25T07:46:05.631Z,2.79
2023-02-25T07:48:34.483Z,2.75
2023-02-25T07:51:06.229Z,2.77
2023-02-25T07:53:33.887Z,2.71
2023-02-25T07:56:01.873Z,2.66
2023-02-25T07:58:29.493Z,2.66
2023-02-25T08:00:56.971Z,2.85
2023-02-25T08:03:24.523Z,2.67
2023-02-25T08:05:54.611Z,2.71
2023-02-25T08:08:22.330Z,2.80
2023-02-25T08:10:50.490Z,2.93
2023-02-25T08:13:17.927Z,2.86
2023-02-25T08:15:45.534Z,2.79
2023-02-25T08:18:13.030Z,3.04
2023-02-25T08:20:40.517Z,3.07
2023-02-25T08:23:09.330Z,3.08
2023-02-25T08:25:36.760Z,3.00
2023-02-25T08:28:04.411Z,2.99
2023-02-25T08:30:31.960Z,3.15
2023-02-25T08:32:59.567Z,3.09
2023-02-25T08:35:27.403Z,3.17
2023-02-25T08:37:54.915Z,3.20
2023-02-25T08:40:23.733Z,3.11
2023-02-25T08:42:51.230Z,2.95
2023-02-25T08:45:18.756Z,3.11
2023-02-25T08:47:46.217Z,3.22
2023-02-25T08:50:13.730Z,3.35
2023-02-25T08:52:42.293Z,3.62
2023-02-25T08:55:11.476Z,3.56
2023-02-25T08:57:40.254Z,3.47
2023-02-25T09:00:09.474Z,3.48
2023-02-25T09:02:37.126Z,3.51
2023-02-25T09:05:04.983Z,3.54
2023-02-25T09:07:32.445Z,3.62
2023-02-25T09:09:59.929Z,3.56
2023-02-25T09:12:27.488Z,3.74
2023-02-25T09:14:56.321Z,3.86
2023-02-25T09:17:23.802Z,3.82
2023-02-25T09:19:51.413Z,3.76
2023-02-25T09:22:19.603Z,3.58
2023-02-25T09:24:47.237Z,3.42
2023-02-25T09:27:14.715Z,3.43
2023-02-25T09:29:42.399Z,3.19
2023-02-25T09:32:18.308Z,3.19
2023-02-25T09:34:46.114Z,3.65
2023-02-25T09:37:14.371Z,4.27
2023-02-25T09:39:42.997Z,5.02
2023-02-25T09:42:14.797Z,5.13
2023-02-25T09:44:45.710Z,4.36
2023-02-25T09:47:21.742Z,5.24
2023-02-25T09:49:54.322Z,5.02
2023-02-25T09:52:28.518Z,5.34
2023-02-25T09:55:00.681Z,4.86
2023-02-25T09:57:29.597Z,5.51
2023-02-25T09:59:57.168Z,4.98
2023-02-25T10:02:35.778Z,5.25
2023-02-25T10:05:15.353Z,5.77
2023-02-25T10:07:52.584Z,6.54
2023-02-25T10:10:24.751Z,5.21
2023-02-25T10:12:58.148Z,4.82
2023-02-25T10:15:52.166Z,4.51
2023-02-25T10:18:37.442Z,4.86
2023-02-25T10:21:18.233Z,4.36
2023-02-25T10:23:58.642Z,4.58
2023-02-25T10:26:29.149Z,3.84
2023-02-25T10:29:03.181Z,3.46
2023-02-25T10:31:32.005Z,3.70
2023-02-25T10:34:20.073Z,3.84
2023-02-25T10:36:54.289Z,3.66
2023-02-25T10:39:22.065Z,3.75
2023-02-25T10:41:50.228Z,4.36
2023-02-25T10:44:18.018Z,4.67
2023-02-25T10:46:52.233Z,5.06
2023-02-25T10:49:23.158Z,5.19
2023-02-25T10:51:58.195Z,4.87
2023-02-25T10:54:25.790Z,4.63
2023-02-25T10:56:54.358Z,4.46
2023-02-25T10:59:30.075Z,4.76
2023-02-25T11:02:00.725Z,4.35
2023-02-25T11:04:35.409Z,4.84
2023-02-25T11:07:03.099Z,5.06
2023-02-25T11:09:36.889Z,5.67
2023-02-25T11:12:18.853Z,5.67
2023-02-25T11:14:46.731Z,5.26
2023-02-25T11:17:20.199Z,4.60
2023-02-25T11:19:53.992Z,4.77
2023-02-25T11:22:26.362Z,4.33
2023-02-25T11:25:00.669Z,4.29
2023-02-25T11:27:36.065Z,4.52
2023-02-25T11:30:09.282Z,4.49
2023-02-25T11:32:44.191Z,4.66
2023-02-25T11:35:19.281Z,4.46
2023-02-25T11:37:48.493Z,4.87
2023-02-25T11:40:27.566Z,4.39
2023-02-25T11:43:03.657Z,4.98
2023-02-25T11:45:33.379Z,4.93
2023-02-25T11:48:04.186Z,5.10
2023-02-25T11:50:38.493Z,6.23
2023-02-25T11:53:18.032Z,6.21
2023-02-25T11:55:55.532Z,4.68
2023-02-25T11:58:34.754Z,5.10
2023-02-25T12:01:07.491Z,5.53
2023-02-25T12:04:01.075Z,6.61
2023-02-25T12:07:01.562Z,7.63
2023-02-25T12:10:25.551Z,7.04
2023-02-25T12:13:22.812Z,6.11
2023-02-25T12:16:17.276Z,6.04
2023-02-25T12:19:09.870Z,5.91
2023-02-25T12:21:56.042Z,6.67
2023-02-25T12:24:59.605Z,6.15
2023-02-25T12:28:14.785Z,6.01
2023-02-25T12:31:16.693Z,5.13
2023-02-25T12:34:14.533Z,5.46
2023-02-25T12:37:02.869Z,5.93
2023-02-25T12:39:47.879Z,4.52
2023-02-25T12:42:38.919Z,3.76
2023-02-25T12:45:40.020Z,3.91
2023-02-25T12:48:29.718Z,3.47
2023-02-25T12:51:15.435Z,3.31
2023-02-25T12:53:54.521Z,3.13
2023-02-25T12:56:39.964Z,3.62
2023-02-25T12:59:40.949Z,4.73
2023-02-25T13:02:28.740Z,5.39
2023-02-25T13:05:13.058Z,5.03
2023-02-25T13:07:53.933Z,5.20
2023-02-25T13:10:39.136Z,3.59
2023-02-25T13:13:31.219Z,2.83
2023-02-25T13:16:13.968Z,2.61
2023-02-25T13:18:50.727Z,2.69
2023-02-25T13:21:36.546Z,3.17
2023-02-25T13:24:16.117Z,2.78
2023-02-25T13:27:03.367Z,2.36
2023-02-25T13:29:48.206Z,1.72
2023-02-25T13:32:27.523Z,1.59
2023-02-25T13:35:11.460Z,1.58
2023-02-25T13:37:49.447Z,1.49
2023-02-25T13:40:38.060Z,1.57
2023-02-25T13:43:29.335Z,1.52
2023-02-25T13:46:14.143Z,1.34
2023-02-25T13:49:04.038Z,2.21
2023-02-25T13:52:07.334Z,3.14
2023-02-25T13:54:53.059Z,3.61
2023-02-25T13:57:36.231Z,3.76
2023-02-25T14:00:26.905Z,3.78
2023-02-25T14:03:15.851Z,4.13
2023-02-25T14:06:03.229Z,3.85
2023-02-25T14:09:06.564Z,3.21
2023-02-25T14:11:44.433Z,2.98
2023-02-25T14:14:32.330Z,2.61
2023-02-25T14:17:18.501Z,1.97
2023-02-25T14:20:00.264Z,1.64
2023-02-25T14:22:37.765Z,1.62
2023-02-25T14:25:19.438Z,1.77
2023-02-25T14:27:59.945Z,1.89
2023-02-25T14:30:36.302Z,1.71
2023-02-25T14:33:19.497Z,1.87
2023-02-25T14:36:16.536Z,1.86
2023-02-25T14:39:06.520Z,1.90
2023-02-25T14:41:52.398Z,1.98
2023-02-25T14:44:31.037Z,1.93
2023-02-25T14:47:02.461Z,1.82
2023-02-25T14:49:34.741Z,1.93
2023-02-25T14:52:21.341Z,2.05
2023-02-25T14:55:28.491Z,1.80
2023-02-25T14:58:20.801Z,1.73
2023-02-25T15:01:00.893Z,1.90
2023-02-25T15:03:43.773Z,1.86
2023-02-25T15:06:24.105Z,1.83
2023-02-25T15:09:16.300Z,1.67
2023-02-25T15:12:01.986Z,1.70
2023-02-25T15:14:46.927Z,1.77
2023-02-25T15:17:44.933Z,1.73
2023-02-25T15:20:30.838Z,1.85
2023-02-25T15:23:07.803Z,1.80
2023-02-25T15:25:45.840Z,1.61
2023-02-25T15:28:48.137Z,1.80
2023-02-25T15:31:34.401Z,1.80
2023-02-25T15:34:32.709Z,2.05
2023-02-25T15:37:21.021Z,2.53
2023-02-25T15:39:51.405Z,2.77
2023-02-25T15:42:50.236Z,2.45
2023-02-25T15:45:45.098Z,2.41
2023-02-25T15:48:34.751Z,2.68
2023-02-25T15:51:04.860Z,2.18
2023-02-25T15:53:48.904Z,2.06
2023-02-25T15:56:47.544Z,1.98
2023-02-25T15:59:44.489Z,1.82
2023-02-25T16:02:41.601Z,1.95
2023-02-25T16:05:24.523Z,1.87
2023-02-25T16:08:15.341Z,1.64
2023-02-25T16:10:47.244Z,1.59
2023-02-25T16:13:18.121Z,1.90
2023-02-25T16:15:52.291Z,2.24
2023-02-25T16:18:28.376Z,2.50
2023-02-25T16:21:01.532Z,2.07
2023-02-25T16:23:29.447Z,1.95
2023-02-25T16:26:08.078Z,1.93
2023-02-25T16:28:45.122Z,1.93
2023-02-25T16:31:20.552Z,2.08
2023-02-25T16:33:53.670Z,1.93
2023-02-25T16:36:31.613Z,1.72
2023-02-25T16:39:02.471Z,1.56
2023-02-25T16:41:38.096Z,1.39
2023-02-25T16:44:07.726Z,1.49
2023-02-25T16:46:39.024Z,1.65
2023-02-25T16:49:10.937Z,1.64
2023-02-25T16:51:41.244Z,1.67
2023-02-25T16:54:13.941Z,1.80
2023-02-25T16:56:44.248Z,1.72
2023-02-25T16:59:18.950Z,1.54
2023-02-25T17:01:56.848Z,1.56
2023-02-25T17:04:27.900Z,1.54
2023-02-25T17:07:13.017Z,1.43
2023-02-25T17:09:46.022Z,1.23
2023-02-25T17:12:18.716Z,1.21
2023-02-25T17:14:48.848Z,1.29
2023-02-25T17:17:22.416Z,1.36
2023-02-25T17:19:51.886Z,1.15
2023-02-25T17:22:22.377Z,1.36
2023-02-25T17:24:52.667Z,1.46
2023-02-25T17:27:21.243Z,1.55
2023-02-25T17:29:50.500Z,2.16
2023-02-25T17:32:23.698Z,1.95
2023-02-25T17:34:54.361Z,1.66
2023-02-25T17:37:22.936Z,1.57
2023-02-25T17:39:51.110Z,1.53
2023-02-25T17:42:30.021Z,1.53
2023-02-25T17:44:58.807Z,2.00
2023-02-25T17:47:30.763Z,1.82
2023-02-25T17:50:01.478Z,1.73
2023-02-25T17:52:31.890Z,1.53
2023-02-25T17:55:02.900Z,1.51
2023-02-25T17:57:33.089Z,1.35
2023-02-25T18:00:13.964Z,1.39
2023-02-25T18:02:43.966Z,1.39
2023-02-25T18:05:24.558Z,1.57
2023-02-25T18:08:19.333Z,1.24
2023-02-25T18:10:56.261Z,1.06
2023-02-25T18:13:28.993Z,1.05
2023-02-25T18:16:18.668Z,1.11
2023-02-25T18:18:50.740Z,1.07
2023-02-25T18:21:19.088Z,1.04
2023-02-25T18:23:48.078Z,1.13
2023-02-25T18:26:19.519Z,1.17
2023-02-25T18:28:47.575Z,1.29
2023-02-25T18:31:16.819Z,1.18
2023-02-25T18:33:46.105Z,1.49
2023-02-25T18:36:20.643Z,1.43
2023-02-25T18:38:48.098Z,1.44
2023-02-25T18:41:16.220Z,1.51
2023-02-25T18:43:44.956Z,1.67
2023-02-25T18:46:12.730Z,1.58
2023-02-25T18:48:40.657Z,2.09
2023-02-25T18:51:13.360Z,0.97
2023-02-25T18:53:42.535Z,0.32
2023-02-25T18:56:16.982Z,0.08
2023-02-25T18:58:45.300Z,0.00
2023-02-25T19:01:23.412Z,0.00
2023-02-25T19:03:52.003Z,-0.20
2023-02-25T19:06:19.564Z,-0.08
2023-02-25T19:08:48.382Z,-0.11
2023-02-25T19:11:20.884Z,0.07
2023-02-25T19:13:48.612Z,-0.17
2023-02-25T19:16:16.748Z,-0.07
2023-02-25T19:18:44.646Z,-0.01
2023-02-25T19:21:14.214Z,0.15
2023-02-25T19:23:41.760Z,0.29
2023-02-25T19:26:11.390Z,0.51
2023-02-25T19:28:39.514Z,0.47
2023-02-25T19:31:07.878Z,0.49
2023-02-25T19:33:36.096Z,0.65
2023-02-25T19:36:04.849Z,0.53
2023-02-25T19:38:32.318Z,0.63
2023-02-25T19:41:03.677Z,0.60
2023-02-25T19:43:33.232Z,0.53
2023-02-25T19:46:01.243Z,0.76
2023-02-25T19:48:28.867Z,0.59
2023-02-25T19:50:56.490Z,0.75
2023-02-25T19:53:26.073Z,0.80
2023-02-25T19:55:57.226Z,0.80
2023-02-25T19:58:24.763Z,1.81
2023-02-25T20:00:53.573Z,1.78
2023-02-25T20:03:21.041Z,1.37
2023-02-25T20:05:48.658Z,1.29
2023-02-25T20:08:16.143Z,0.98
2023-02-25T20:10:44.583Z,0.65
2023-02-25T20:13:12.025Z,0.57
2023-02-25T20:15:39.583Z,0.37
2023-02-25T20:18:08.374Z,0.33
2023-02-25T20:20:37.010Z,0.42
2023-02-25T20:23:04.470Z,0.40
2023-02-25T20:25:31.938Z,0.44
2023-02-25T20:27:59.407Z,0.58
2023-02-25T20:30:27.158Z,0.59
2023-02-25T20:32:54.670Z,0.85
2023-02-25T20:35:26.100Z,0.36
2023-02-25T20:38:14.764Z,0.66
2023-02-25T20:40:42.434Z,0.57
2023-02-25T20:43:10.520Z,0.47
2023-02-25T20:45:38.620Z,0.28
2023-02-25T20:48:06.569Z,0.13
2023-02-25T20:50:38.165Z,0.13
2023-02-25T20:53:05.805Z,0.10
2023-02-25T20:55:33.293Z,0.04
2023-02-25T20:58:00.786Z,-0.21
2023-02-25T21:00:28.349Z,-0.21
2023-02-25T21:02:56.061Z,-0.25
2023-02-25T21:05:23.533Z,-0.24
2023-02-25T21:07:52.346Z,-0.23
2023-02-25T21:10:19.847Z,-0.24
2023-02-25T21:12:47.278Z,-0.19
2023-02-25T21:15:14.762Z,-0.14
2023-02-25T21:17:42.617Z,-0.31
2023-02-25T21:20:11.420Z,-0.38
2023-02-25T21:22:38.893Z,-0.32
2023-02-25T21:25:08.355Z,-0.33
2023-02-25T21:27:35.889Z,-0.40
2023-02-25T21:30:03.371Z,-0.36
2023-02-25T21:32:30.822Z,-0.27
2023-02-25T21:34:58.290Z,-0.22
2023-02-25T21:37:26.848Z,-0.38
2023-02-25T21:39:54.396Z,-0.32
2023-02-25T21:42:23.652Z,-0.25
2023-02-25T21:44:51.185Z,-0.19
2023-02-25T21:47:18.753Z,-0.27
2023-02-25T21:49:46.541Z,-0.20
2023-02-25T21:52:13.990Z,-0.26
2023-02-25T21:54:41.475Z,-0.20
2023-02-25T21:57:08.955Z,-0.18
2023-02-25T21:59:37.787Z,-0.11
2023-02-25T22:02:05.283Z,-0.33
2023-02-25T22:04:32.851Z,-0.34
2023-02-25T22:07:00.339Z,-0.41
2023-02-25T22:09:28.040Z,-0.34
2023-02-25T22:11:55.513Z,-0.29
2023-02-25T22:14:24.614Z,-0.03
2023-02-25T22:16:53.424Z,-0.38
2023-02-25T22:19:20.880Z,-0.35
2023-02-25T22:21:48.381Z,-0.39
2023-02-25T22:24:15.886Z,-0.41
2023-02-25T22:26:44.711Z,-0.42
2023-02-25T22:29:12.194Z,-0.60
2023-02-25T22:31:39.707Z,-0.59
2023-02-25T22:34:09.034Z,-0.61
2023-02-25T22:36:36.542Z,-0.65
2023-02-25T22:39:05.842Z,-0.56
2023-02-25T22:41:33.380Z,-0.61
2023-02-25T22:44:02.332Z,-0.63
2023-02-25T22:46:31.442Z,-0.52
2023-02-25T22:48:59.727Z,-0.56
2023-02-25T22:51:30.646Z,-0.80
2023-02-25T22:53:58.506Z,-0.86
2023-02-25T22:56:26.727Z,-0.76
2023-02-25T22:58:54.826Z,-0.89
2023-02-25T23:01:23.658Z,-0.70
2023-02-25T23:03:52.520Z,-0.95
2023-02-25T23:06:24.906Z,-1.05
2023-02-25T23:08:57.670Z,-1.04
2023-02-25T23:11:27.633Z,-1.01
2023-02-25T23:13:58.249Z,-1.02
2023-02-25T23:16:29.573Z,-1.18
2023-02-25T23:18:58.651Z,-1.16
2023-02-25T23:21:26.815Z,-1.17
2023-02-25T23:23:57.403Z,-1.22
2023-02-25T23:26:28.237Z,-1.34
2023-02-25T23:28:56.333Z,-1.41
2023-02-25T23:31:25.501Z,-1.44
2023-02-25T23:33:55.858Z,-1.44
2023-02-25T23:36:23.757Z,-1.38
2023-02-25T23:38:53.886Z,-1.44
2023-02-25T23:41:31.666Z,-1.45
2023-02-25T23:44:01.690Z,-1.53
2023-02-25T23:46:31.630Z,-1.59
2023-02-25T23:49:00.619Z,-1.62
2023-02-25T23:51:29.008Z,-1.67
2023-02-25T23:53:58.159Z,-1.74
2023-02-25T23:56:27.056Z,-1.73
2023-02-25T23:58:56.823Z,-1.68
